createdAt,value
2022-11-28T00:03:17.298Z,66.64
2022-11-28T00:08:17.090Z,66.63
2022-11-28T00:13:17.023Z,66.63
2022-11-28T00:18:16.970Z,66.62
2022-11-28T00:23:16.883Z,66.64
2022-11-28T00:28:16.835Z,66.66
2022-11-28T00:33:16.820Z,66.65
2022-11-28T00:38:16.695Z,66.69
2022-11-28T00:43:16.636Z,66.68
2022-11-28T00:48:16.574Z,66.69
2022-11-28T00:53:16.516Z,66.72
2022-11-28T00:58:16.424Z,66.75
2022-11-28T01:03:16.374Z,66.79
2022-11-28T01:08:38.842Z,66.49
2022-11-28T01:13:31.250Z,66.76
2022-11-28T01:18:31.203Z,66.88
2022-11-28T01:23:31.091Z,66.91
2022-11-28T01:28:31.064Z,66.90
2022-11-28T01:33:30.990Z,66.91
2022-11-28T01:38:30.918Z,66.89
2022-11-28T01:43:30.854Z,66.88
2022-11-28T01:48:30.810Z,66.85
2022-11-28T01:53:30.716Z,66.83
2022-11-28T01:58:30.679Z,66.86
2022-11-28T02:03:30.586Z,66.94
2022-11-28T02:08:30.538Z,67.04
2022-11-28T02:13:30.466Z,67.21
2022-11-28T02:18:30.435Z,67.34
2022-11-28T02:23:30.317Z,67.45
2022-11-28T02:28:30.269Z,67.56
2022-11-28T02:33:30.194Z,67.67
2022-11-28T02:38:30.138Z,67.81
2022-11-28T02:43:30.036Z,67.94
2022-11-28T02:48:30.020Z,68.03
2022-11-28T02:53:29.929Z,68.11
2022-11-28T02:58:29.875Z,68.24
2022-11-28T03:03:29.807Z,68.38
2022-11-28T03:08:29.740Z,68.50
2022-11-28T03:13:29.669Z,68.55
2022-11-28T03:18:29.602Z,68.58
2022-11-28T03:23:29.538Z,68.68
2022-11-28T03:28:29.495Z,68.75
2022-11-28T03:33:29.409Z,68.73
2022-11-28T03:38:29.361Z,68.70
2022-11-28T03:43:29.335Z,68.68
2022-11-28T03:48:29.213Z,68.66
2022-11-28T03:53:29.126Z,68.64
2022-11-28T03:58:29.071Z,68.64
2022-11-28T04:03:29.044Z,68.65
2022-11-28T04:08:28.949Z,68.65
2022-11-28T04:13:28.866Z,68.64
2022-11-28T04:18:28.867Z,68.68
2022-11-28T04:23:28.737Z,68.72
2022-11-28T04:28:28.702Z,68.72
2022-11-28T04:33:28.617Z,68.72
2022-11-28T04:38:28.547Z,68.74
2022-11-28T04:43:28.455Z,68.75
2022-11-28T04:48:33.980Z,68.78
2022-11-28T04:53:29.357Z,68.80
2022-11-28T04:58:28.290Z,68.78
2022-11-28T05:03:28.278Z,68.76
2022-11-28T05:08:28.181Z,68.77
2022-11-28T05:13:28.172Z,68.77
2022-11-28T05:18:37.582Z,68.48
2022-11-28T05:23:29.943Z,68.76
2022-11-28T05:28:29.877Z,68.91
2022-11-28T05:33:29.840Z,68.93
2022-11-28T05:38:29.759Z,68.94
2022-11-28T05:43:29.712Z,68.93
2022-11-28T05:48:29.603Z,68.95
2022-11-28T05:53:29.610Z,68.95
2022-11-28T05:58:29.495Z,68.96
2022-11-28T06:03:29.424Z,68.95
2022-11-28T06:08:29.355Z,68.97
2022-11-28T06:13:29.307Z,68.98
2022-11-28T06:18:29.282Z,68.97
2022-11-28T06:23:29.175Z,68.98
2022-11-28T06:28:29.097Z,68.99
2022-11-28T06:33:29.047Z,68.99
2022-11-28T06:38:28.969Z,68.99
2022-11-28T06:43:28.879Z,68.95
2022-11-28T06:48:28.856Z,68.90
2022-11-28T06:53:31.531Z,68.89
2022-11-28T06:58:28.677Z,68.85
2022-11-28T07:03:28.666Z,68.83
2022-11-28T07:08:28.612Z,68.79
2022-11-28T07:13:28.503Z,68.74
2022-11-28T07:18:28.404Z,68.70
2022-11-28T07:23:28.388Z,68.65
2022-11-28T07:28:28.296Z,68.62
2022-11-28T07:33:28.237Z,68.58
2022-11-28T07:38:28.161Z,68.53
2022-11-28T07:43:28.170Z,68.47
2022-11-28T07:48:28.035Z,68.44
2022-11-28T07:53:28.038Z,68.40
2022-11-28T07:58:27.893Z,68.29
2022-11-28T08:03:27.846Z,68.18
2022-11-28T08:08:27.796Z,68.17
2022-11-28T08:13:27.748Z,68.15
2022-11-28T08:18:27.659Z,68.04
2022-11-28T08:23:27.563Z,68.02
2022-11-28T08:28:27.524Z,67.91
2022-11-28T08:33:27.460Z,67.92
2022-11-28T08:38:27.393Z,67.91
2022-11-28T08:43:27.308Z,67.70
2022-11-28T08:48:27.235Z,67.46
2022-11-28T08:53:27.187Z,67.45
2022-11-28T08:58:27.118Z,67.36
2022-11-28T09:03:27.086Z,67.21
2022-11-28T09:08:26.996Z,67.23
2022-11-28T09:13:26.935Z,67.21
2022-11-28T09:18:26.826Z,67.27
2022-11-28T09:23:26.812Z,67.32
2022-11-28T09:28:26.735Z,67.37
2022-11-28T09:33:26.673Z,67.45
2022-11-28T09:38:26.606Z,67.50
2022-11-28T09:43:26.541Z,67.54
2022-11-28T09:48:26.454Z,67.49
2022-11-28T09:53:26.397Z,67.50
2022-11-28T09:58:26.331Z,67.40
2022-11-28T10:03:26.324Z,67.33
2022-11-28T10:08:26.203Z,67.32
2022-11-28T10:13:32.699Z,67.24
2022-11-28T10:18:27.064Z,67.24
2022-11-28T10:23:26.014Z,67.24
2022-11-28T10:28:25.941Z,67.36
2022-11-28T10:33:26.677Z,67.46
2022-11-28T10:38:25.813Z,67.59
2022-11-28T10:43:25.755Z,67.77
2022-11-28T10:48:41.371Z,67.88
2022-11-28T10:53:26.630Z,67.95
2022-11-28T10:58:25.561Z,67.98
2022-11-28T11:03:26.346Z,68.04
2022-11-28T11:08:25.549Z,68.03
2022-11-28T11:13:25.349Z,68.11
2022-11-28T11:18:25.287Z,68.16
2022-11-28T11:23:25.222Z,68.16
2022-11-28T11:28:25.162Z,68.13
2022-11-28T11:33:25.102Z,68.24
2022-11-28T11:38:25.030Z,68.31
2022-11-28T11:43:24.987Z,68.40
2022-11-28T11:48:24.921Z,68.45
2022-11-28T11:53:24.832Z,68.52
2022-11-28T11:58:24.743Z,68.57
2022-11-28T12:03:24.744Z,68.60
2022-11-28T12:08:24.615Z,68.66
2022-11-28T12:13:24.577Z,68.72
2022-11-28T12:18:24.470Z,68.81
2022-11-28T12:23:24.442Z,68.85
2022-11-28T12:28:24.366Z,68.86
2022-11-28T12:33:24.308Z,68.95
2022-11-28T12:38:24.219Z,69.03
2022-11-28T12:43:24.167Z,68.97
2022-11-28T12:48:24.100Z,68.89
2022-11-28T12:53:24.035Z,68.93
2022-11-28T12:58:23.955Z,69.08
2022-11-28T13:03:23.925Z,69.20
2022-11-28T13:08:23.831Z,69.34
2022-11-28T13:13:23.789Z,69.48
2022-11-28T13:18:23.700Z,69.59
2022-11-28T13:23:23.653Z,69.68
2022-11-28T13:28:23.567Z,69.70
2022-11-28T13:33:23.524Z,69.66
2022-11-28T13:38:48.267Z,69.58
2022-11-28T13:43:24.395Z,69.44
2022-11-28T13:48:42.838Z,69.54
2022-11-28T13:53:24.265Z,69.57
2022-11-28T13:58:23.159Z,69.57
2022-11-28T14:03:23.184Z,69.62
2022-11-28T14:08:23.051Z,69.74
2022-11-28T14:13:23.004Z,69.87
2022-11-28T14:18:55.053Z,69.98
2022-11-28T14:23:23.878Z,69.90
2022-11-28T14:28:22.788Z,69.97
2022-11-28T14:33:22.727Z,70.07
2022-11-28T14:38:22.652Z,70.26
2022-11-28T14:43:22.583Z,70.39
2022-11-28T14:48:22.571Z,70.50
2022-11-28T14:53:22.475Z,70.61
2022-11-28T14:58:22.374Z,70.66
2022-11-28T15:03:22.434Z,70.74
2022-11-28T15:08:22.268Z,70.84
2022-11-28T15:13:22.184Z,70.96
2022-11-28T15:18:22.126Z,71.08
2022-11-28T15:23:22.064Z,71.18
2022-11-28T15:28:21.995Z,71.30
2022-11-28T15:33:21.944Z,71.37
2022-11-28T15:38:21.875Z,71.46
2022-11-28T15:43:21.804Z,71.53
2022-11-28T15:48:21.749Z,71.59
2022-11-28T15:53:21.666Z,71.66
2022-11-28T15:58:21.588Z,71.78
2022-11-28T16:03:21.541Z,71.83
2022-11-28T16:08:21.461Z,71.86
2022-11-28T16:13:21.428Z,71.91
2022-11-28T16:18:21.311Z,71.97
2022-11-28T16:23:21.291Z,71.98
2022-11-28T16:28:21.217Z,72.03
2022-11-28T16:33:22.000Z,72.05
2022-11-28T16:38:21.083Z,72.10
2022-11-28T16:43:21.021Z,72.12
2022-11-28T16:48:20.946Z,72.13
2022-11-28T16:53:20.882Z,72.18
2022-11-28T16:58:20.793Z,72.22
2022-11-28T17:03:20.765Z,72.24
2022-11-28T17:08:20.685Z,72.30
2022-11-28T17:13:20.611Z,72.33
2022-11-28T17:18:20.557Z,72.34
2022-11-28T17:23:20.511Z,72.38
2022-11-28T17:28:23.207Z,72.44
2022-11-28T17:33:20.329Z,72.50
2022-11-28T17:38:20.278Z,72.58
2022-11-28T17:43:20.228Z,72.62
2022-11-28T17:48:20.144Z,72.67
2022-11-28T17:53:20.107Z,72.65
2022-11-28T17:58:19.989Z,72.65
2022-11-28T18:03:19.961Z,72.68
2022-11-28T18:08:22.083Z,72.68
2022-11-28T18:13:19.846Z,72.69
2022-11-28T18:18:19.748Z,72.72
2022-11-28T18:23:19.699Z,72.72
2022-11-28T18:28:19.645Z,72.74
2022-11-28T18:33:19.573Z,72.76
2022-11-28T18:38:19.633Z,72.78
2022-11-28T18:43:19.468Z,72.78
2022-11-28T18:48:19.367Z,72.80
2022-11-28T18:53:19.735Z,72.78
2022-11-28T18:58:19.205Z,72.83
2022-11-28T19:03:19.163Z,72.86
2022-11-28T19:08:19.096Z,72.86
2022-11-28T19:13:19.058Z,72.92
2022-11-28T19:18:18.956Z,72.93
2022-11-28T19:23:18.920Z,72.95
2022-11-28T19:28:18.812Z,72.98
2022-11-28T19:33:18.779Z,73.00
2022-11-28T19:38:18.703Z,73.01
2022-11-28T19:43:18.649Z,73.04
2022-11-28T19:48:18.574Z,73.04
2022-11-28T19:53:18.509Z,73.06
2022-11-28T19:58:18.432Z,73.06
2022-11-28T20:03:18.376Z,73.09
2022-11-28T20:08:18.284Z,73.12
2022-11-28T20:13:18.264Z,73.16
2022-11-28T20:18:18.220Z,73.19
2022-11-28T20:23:18.136Z,73.19
2022-11-28T20:28:18.040Z,73.20
2022-11-28T20:33:18.016Z,73.21
2022-11-28T20:38:17.931Z,73.20
2022-11-28T20:43:17.858Z,73.21
2022-11-28T20:48:17.758Z,73.23
2022-11-28T20:53:22.201Z,73.25
2022-11-28T20:58:18.652Z,73.27
2022-11-28T21:03:17.594Z,73.27
2022-11-28T21:08:17.523Z,73.31
2022-11-28T21:13:17.454Z,73.35
2022-11-28T21:18:17.387Z,73.36
2022-11-28T21:23:17.321Z,73.38
2022-11-28T21:28:17.230Z,73.42
2022-11-28T21:33:17.181Z,73.45
2022-11-28T21:38:17.124Z,73.50
2022-11-28T21:43:17.056Z,73.53
2022-11-28T21:48:16.997Z,73.58
2022-11-28T21:53:16.969Z,73.60
2022-11-28T21:58:16.873Z,73.63
2022-11-28T22:03:16.849Z,73.66
2022-11-28T22:08:16.765Z,73.71
2022-11-28T22:13:16.653Z,73.74
2022-11-28T22:18:16.617Z,73.75
2022-11-28T22:23:16.536Z,73.74
2022-11-28T22:28:16.481Z,73.69
2022-11-28T22:33:16.426Z,73.70
2022-11-28T22:38:16.347Z,73.72
2022-11-28T22:43:16.239Z,73.72
2022-11-28T22:48:16.193Z,73.74
2022-11-28T22:53:16.129Z,73.77
2022-11-28T22:58:16.073Z,73.80
2022-11-28T23:03:16.050Z,73.81
2022-11-28T23:08:15.947Z,73.83
2022-11-28T23:13:15.836Z,73.87
2022-11-28T23:18:15.804Z,73.89
2022-11-28T23:23:15.731Z,73.92
2022-11-28T23:28:15.678Z,73.91
2022-11-28T23:33:15.610Z,73.90
2022-11-28T23:38:15.548Z,73.90
2022-11-28T23:43:15.470Z,73.86
2022-11-28T23:48:16.425Z,73.87
2022-11-28T23:53:15.368Z,73.86
2022-11-28T23:58:15.333Z,73.86
